Time;durP1;ratioP1;P1;durP2;ratioP2;P2;SDS_P1;SDS_P2;PMS_P1;PMS_P2;Temp;Humidity;BMP_temperature;BMP_pressure;BME280_temperature;BME280_humidity;BME280_pressure;Samples;Min_cycle;Max_cycle;Signal;HPM_P1;HPM_P2
2022/06/03 00:00:05;;;;;;;;;;;16.40;99.90;;;;;;4590723;19;20349;-28
2022/06/03 00:02:13;;;;;;;;;;;16.40;99.90;;;;;;4592084;19;20377;-27
2022/06/03 00:03:59;;;;;;;;;;;16.40;99.90;;;;;;4591838;19;19939;-24
2022/06/03 00:05:36;;;;;;;;;;;16.40;99.90;;;;;;4591963;19;19919;-25
2022/06/03 00:07:11;;;;;;;;;;;16.40;99.90;;;;;;4590829;19;19950;-26
2022/06/03 00:08:49;;;;;;;;;;;16.40;99.90;;;;;;4591957;19;19907;-24
2022/06/03 00:10:49;;;;;;;;;;;16.40;99.90;;;;;;4592206;19;19917;-28
2022/06/03 00:12:25;;;;;;;;;;;16.40;99.90;;;;;;4591206;19;19923;-24
2022/06/03 00:13:56;;;;;;;;;;;16.40;99.90;;;;;;4592254;19;19917;-24
2022/06/03 00:15:46;;;;;;;;;;;16.40;99.90;;;;;;4591240;19;19922;-24
2022/06/03 00:17:25;;;;;;;;;;;16.40;99.90;;;;;;4590787;19;20357;-24
2022/06/03 00:19:07;;;;;;;;;;;16.30;99.90;;;;;;4593274;19;19915;-24
2022/06/03 00:20:57;;;;;;;;;;;16.40;99.90;;;;;;4594074;19;19918;-27
2022/06/03 00:22:44;;;;;;;;;;;16.30;99.90;;;;;;4593930;19;19915;-26
2022/06/03 00:24:38;;;;;;;;;;;16.30;99.90;;;;;;4594299;19;20313;-26
2022/06/03 00:26:18;;;;;;;;;;;16.30;99.90;;;;;;4591464;19;19946;-25
2022/06/03 00:28:04;;;;;;;;;;;16.30;99.90;;;;;;4589942;19;19918;-27
2022/06/03 00:29:50;;;;;;;;;;;16.30;99.90;;;;;;4591459;19;20257;-25
2022/06/03 00:31:40;;;;;;;;;;;16.30;99.90;;;;;;4591152;19;20023;-27
2022/06/03 00:33:26;;;;;;;;;;;16.30;99.90;;;;;;4591769;19;19918;-27
2022/06/03 00:35:00;;;;;;;;;;;16.30;99.90;;;;;;4591030;19;19917;-26
2022/06/03 00:36:51;;;;;;;;;;;16.30;99.90;;;;;;4591011;19;20011;-25
2022/06/03 00:38:42;;;;;;;;;;;16.30;99.90;;;;;;4591043;19;19922;-26
2022/06/03 00:40:22;;;;;;;;;;;16.30;99.90;;;;;;4590971;19;19930;-25
2022/06/03 00:42:12;;;;;;;;;;;16.30;99.90;;;;;;4591481;19;20241;-24
2022/06/03 00:44:01;;;;;;;;;;;16.30;99.90;;;;;;4591039;19;20399;-25
2022/06/03 00:45:37;;;;;;;;;;;16.30;99.90;;;;;;4591407;19;19930;-25
2022/06/03 00:47:14;;;;;;;;;;;16.30;99.90;;;;;;4590403;19;19940;-28
2022/06/03 00:48:47;;;;;;;;;;;16.30;99.90;;;;;;4591115;19;20300;-25
2022/06/03 00:50:21;;;;;;;;;;;16.30;99.90;;;;;;4590945;19;19956;-27
2022/06/03 00:52:04;;;;;;;;;;;16.30;99.90;;;;;;4591321;19;19931;-26
2022/06/03 00:53:55;;;;;;;;;;;16.30;99.90;;;;;;4591083;19;19931;-24
2022/06/03 00:55:46;;;;;;;;;;;16.30;99.90;;;;;;4591012;19;19985;-27
2022/06/03 00:57:35;;;;;;;;;;;16.30;99.90;;;;;;4590230;19;20282;-24
2022/06/03 00:59:25;;;;;;;;;;;16.30;99.90;;;;;;4590966;19;20328;-25
2022/06/03 01:01:01;;;;;;;;;;;16.20;99.90;;;;;;4590555;19;19911;-25
2022/06/03 01:02:51;;;;;;;;;;;16.30;99.90;;;;;;4590926;19;19926;-25
2022/06/03 01:04:22;;;;;;;;;;;16.20;99.90;;;;;;4590842;19;20014;-27
2022/06/03 01:06:05;;;;;;;;;;;16.30;99.90;;;;;;4590796;19;19914;-25
2022/06/03 01:07:49;;;;;;;;;;;16.30;99.90;;;;;;4589578;19;19918;-29
2022/06/03 01:09:20;;;;;;;;;;;16.30;99.90;;;;;;4590357;19;19923;-25
2022/06/03 01:11:06;;;;;;;;;;;16.30;99.90;;;;;;4591006;19;19978;-24
2022/06/03 01:12:40;;;;;;;;;;;16.30;99.90;;;;;;4590688;19;19934;-24
2022/06/03 01:14:17;;;;;;;;;;;16.20;99.90;;;;;;4590608;19;19919;-24
2022/06/03 01:16:07;;;;;;;;;;;16.30;99.90;;;;;;4590331;19;19918;-25
2022/06/03 01:17:50;;;;;;;;;;;16.20;99.90;;;;;;4589040;19;19948;-25
2022/06/03 01:19:27;;;;;;;;;;;16.30;99.90;;;;;;4590752;19;19919;-26
2022/06/03 01:21:06;;;;;;;;;;;16.20;99.90;;;;;;4590822;19;19990;-25
2022/06/03 01:23:00;;;;;;;;;;;16.20;99.90;;;;;;4590252;19;20455;-28
2022/06/03 01:24:43;;;;;;;;;;;16.20;99.90;;;;;;4590015;19;20377;-27
2022/06/03 01:26:32;;;;;;;;;;;16.20;99.90;;;;;;4590355;19;19964;-24
2022/06/03 01:28:22;;;;;;;;;;;16.20;99.90;;;;;;4590214;19;19919;-25
2022/06/03 01:29:53;;;;;;;;;;;16.20;99.90;;;;;;4590123;19;20405;-24
2022/06/03 01:31:42;;;;;;;;;;;16.20;99.90;;;;;;4590105;19;19922;-26
2022/06/03 01:33:16;;;;;;;;;;;16.20;99.90;;;;;;4590664;19;19918;-28
2022/06/03 01:35:05;;;;;;;;;;;16.20;99.90;;;;;;4590372;19;19919;-25
2022/06/03 01:36:55;;;;;;;;;;;16.20;99.90;;;;;;4591815;19;20366;-26
2022/06/03 01:38:32;;;;;;;;;;;16.20;99.90;;;;;;4591207;19;20003;-25
2022/06/03 01:40:11;;;;;;;;;;;16.20;99.90;;;;;;4591444;19;19919;-28
2022/06/03 01:41:42;;;;;;;;;;;16.20;99.90;;;;;;4591149;19;19936;-25
2022/06/03 01:43:13;;;;;;;;;;;16.20;99.90;;;;;;4591829;19;20269;-26
2022/06/03 01:44:47;;;;;;;;;;;16.10;99.90;;;;;;4592069;19;19911;-25
2022/06/03 01:46:18;;;;;;;;;;;16.20;99.90;;;;;;4591936;19;19923;-24
2022/06/03 01:48:10;;;;;;;;;;;16.20;99.90;;;;;;4588682;19;19930;-27
2022/06/03 01:50:10;;;;;;;;;;;16.20;99.90;;;;;;4592575;19;19922;-26
2022/06/03 01:51:44;;;;;;;;;;;16.20;99.90;;;;;;4590898;19;19930;-25
2022/06/03 01:53:18;;;;;;;;;;;16.20;99.90;;;;;;4591792;19;19936;-24
2022/06/03 01:55:07;;;;;;;;;;;16.20;99.90;;;;;;4590710;19;19910;-25
2022/06/03 01:56:47;;;;;;;;;;;16.10;99.90;;;;;;4591975;19;19915;-28
2022/06/03 01:58:21;;;;;;;;;;;16.20;99.90;;;;;;4590858;19;19952;-24
2022/06/03 02:00:11;;;;;;;;;;;16.20;99.90;;;;;;4590933;19;19923;-25
2022/06/03 02:02:03;;;;;;;;;;;16.10;99.90;;;;;;4591621;19;19922;-27
2022/06/03 02:03:34;;;;;;;;;;;16.20;99.90;;;;;;4590573;19;19941;-28
2022/06/03 02:05:14;;;;;;;;;;;16.20;99.90;;;;;;4591706;19;19919;-24
2022/06/03 02:06:48;;;;;;;;;;;16.20;99.90;;;;;;4590548;19;19935;-25
2022/06/03 02:08:28;;;;;;;;;;;16.10;99.90;;;;;;4591601;19;19927;-25
2022/06/03 02:10:18;;;;;;;;;;;16.20;99.90;;;;;;4591243;19;19935;-24
2022/06/03 02:12:07;;;;;;;;;;;16.20;99.90;;;;;;4591485;19;19966;-26
2022/06/03 02:13:50;;;;;;;;;;;16.10;99.90;;;;;;4592032;19;19937;-28
2022/06/03 02:15:21;;;;;;;;;;;16.20;99.90;;;;;;4591800;19;19974;-25
2022/06/03 02:17:10;;;;;;;;;;;16.20;99.90;;;;;;4591651;19;20239;-23
2022/06/03 02:18:59;;;;;;;;;;;16.10;99.90;;;;;;4591999;19;20313;-26
2022/06/03 02:20:49;;;;;;;;;;;16.10;99.90;;;;;;4591183;19;19970;-29
2022/06/03 02:22:28;;;;;;;;;;;16.20;99.90;;;;;;4591144;19;19914;-25
2022/06/03 02:24:02;;;;;;;;;;;16.10;99.90;;;;;;4589000;19;19968;-26
2022/06/03 02:25:36;;;;;;;;;;;16.10;99.90;;;;;;4589737;19;20301;-25
2022/06/03 02:27:30;;;;;;;;;;;16.10;99.90;;;;;;4588793;19;19974;-25
2022/06/03 02:31:13;;;;;;;;;;;16.10;99.90;;;;;;4589446;19;19914;-26
2022/06/03 02:32:56;;;;;;;;;;;16.10;99.90;;;;;;4589218;19;20002;-28
2022/06/03 02:34:27;;;;;;;;;;;16.10;99.90;;;;;;4589273;19;20333;-26
2022/06/03 02:36:16;;;;;;;;;;;16.10;99.90;;;;;;4589626;19;19914;-29
2022/06/03 02:37:54;;;;;;;;;;;16.10;99.90;;;;;;4589437;19;19918;-25
2022/06/03 02:39:30;;;;;;;;;;;16.10;99.90;;;;;;4588942;19;19911;-25
2022/06/03 02:41:19;;;;;;;;;;;16.10;99.90;;;;;;4588911;19;19935;-25
2022/06/03 02:42:57;;;;;;;;;;;16.10;99.90;;;;;;4589046;19;19922;-24
2022/06/03 02:44:46;;;;;;;;;;;16.10;99.90;;;;;;4589046;19;20365;-26
2022/06/03 02:46:17;;;;;;;;;;;16.10;99.90;;;;;;4589135;19;19974;-25
2022/06/03 02:48:06;;;;;;;;;;;16.10;99.90;;;;;;4588316;19;20348;-25
2022/06/03 02:49:49;;;;;;;;;;;16.10;99.90;;;;;;4588761;19;20329;-25
2022/06/03 02:51:25;;;;;;;;;;;16.10;99.90;;;;;;4588682;19;19922;-24
2022/06/03 02:53:17;;;;;;;;;;;16.10;99.90;;;;;;4589199;19;19938;-26
2022/06/03 02:55:09;;;;;;;;;;;16.10;99.90;;;;;;4588826;19;20356;-25
2022/06/03 02:56:58;;;;;;;;;;;16.10;99.90;;;;;;4588643;19;19918;-25
2022/06/03 02:58:45;;;;;;;;;;;16.10;99.90;;;;;;4590130;19;20364;-26
2022/06/03 03:00:25;;;;;;;;;;;16.10;99.90;;;;;;4591978;19;19915;-25
2022/06/03 03:01:58;;;;;;;;;;;16.10;99.90;;;;;;4593066;19;19919;-28
2022/06/03 03:03:38;;;;;;;;;;;16.10;99.90;;;;;;4593173;19;19915;-24
2022/06/03 03:05:15;;;;;;;;;;;16.10;99.90;;;;;;4593640;19;19914;-28
2022/06/03 03:06:55;;;;;;;;;;;16.10;99.90;;;;;;4593288;19;20314;-26
2022/06/03 03:08:26;;;;;;;;;;;16.10;99.90;;;;;;4592985;19;19922;-24
2022/06/03 03:10:03;;;;;;;;;;;16.10;99.90;;;;;;4593370;19;20329;-28
2022/06/03 03:11:40;;;;;;;;;;;16.10;99.90;;;;;;4593314;19;19919;-26
2022/06/03 03:13:14;;;;;;;;;;;16.10;99.90;;;;;;4592934;19;19921;-25
2022/06/03 03:15:03;;;;;;;;;;;16.10;99.90;;;;;;4592842;19;19970;-25
2022/06/03 03:16:34;;;;;;;;;;;16.10;99.90;;;;;;4592482;19;19943;-24
2022/06/03 03:18:08;;;;;;;;;;;16.10;99.90;;;;;;4593419;19;19923;-27
2022/06/03 03:19:58;;;;;;;;;;;16.10;99.90;;;;;;4592840;19;19922;-26
2022/06/03 03:21:38;;;;;;;;;;;16.10;99.90;;;;;;4593106;19;19914;-27
2022/06/03 03:23:28;;;;;;;;;;;16.10;99.90;;;;;;4592831;19;19918;-24
2022/06/03 03:25:01;;;;;;;;;;;16.10;99.90;;;;;;4592832;19;19982;-27
2022/06/03 03:26:35;;;;;;;;;;;16.10;99.90;;;;;;4592948;19;19957;-27
2022/06/03 03:28:09;;;;;;;;;;;16.10;99.90;;;;;;4590953;19;19923;-24
2022/06/03 03:29:40;;;;;;;;;;;16.10;99.90;;;;;;4594273;19;19914;-25
2022/06/03 03:31:17;;;;;;;;;;;16.10;99.90;;;;;;4592708;19;19923;-24
2022/06/03 03:33:06;;;;;;;;;;;16.10;99.90;;;;;;4592847;19;20326;-26
2022/06/03 03:34:37;;;;;;;;;;;16.20;99.90;;;;;;4594733;19;19923;-24
2022/06/03 03:36:14;;;;;;;;;;;16.10;99.90;;;;;;4597007;19;19918;-26
2022/06/03 03:37:48;;;;;;;;;;;16.10;99.90;;;;;;4596370;19;19982;-27
2022/06/03 03:39:37;;;;;;;;;;;16.10;99.90;;;;;;4594451;19;19988;-25
2022/06/03 03:41:28;;;;;;;;;;;16.10;99.90;;;;;;4593377;19;20245;-24
2022/06/03 03:43:02;;;;;;;;;;;16.20;99.90;;;;;;4592408;19;20270;-28
2022/06/03 03:44:54;;;;;;;;;;;16.20;99.90;;;;;;4592033;19;19929;-25
2022/06/03 03:46:44;;;;;;;;;;;16.20;99.90;;;;;;4592287;19;19949;-26
2022/06/03 03:48:32;;;;;;;;;;;16.10;99.90;;;;;;4592283;19;19926;-24
2022/06/03 03:50:09;;;;;;;;;;;16.20;99.90;;;;;;4593230;19;19955;-28
2022/06/03 03:51:40;;;;;;;;;;;16.20;99.90;;;;;;4592511;19;19923;-27
2022/06/03 03:53:20;;;;;;;;;;;16.20;99.90;;;;;;4592214;19;19915;-25
2022/06/03 03:54:57;;;;;;;;;;;16.10;99.90;;;;;;4592865;19;19915;-26
2022/06/03 03:56:34;;;;;;;;;;;16.20;99.90;;;;;;4592094;19;19918;-24
2022/06/03 03:58:25;;;;;;;;;;;16.20;99.90;;;;;;4592077;19;20318;-24
2022/06/03 04:00:05;;;;;;;;;;;16.10;99.90;;;;;;4591573;19;19975;-26
2022/06/03 04:01:39;;;;;;;;;;;16.20;99.90;;;;;;4591804;19;20344;-26
2022/06/03 04:03:25;;;;;;;;;;;16.20;99.90;;;;;;4592847;19;19919;-26
2022/06/03 04:04:56;;;;;;;;;;;16.20;99.90;;;;;;4592118;19;19915;-25
2022/06/03 04:06:44;;;;;;;;;;;16.20;99.90;;;;;;4591339;19;19918;-23
2022/06/03 04:08:23;;;;;;;;;;;16.20;99.90;;;;;;4592381;19;19926;-24
2022/06/03 04:09:53;;;;;;;;;;;16.30;99.90;;;;;;4590484;19;20562;-26
2022/06/03 04:11:40;;;;;;;;;;;16.30;99.90;;;;;;4590896;19;19943;-27
2022/06/03 04:13:19;;;;;;;;;;;16.30;99.90;;;;;;4591545;19;19926;-26
2022/06/03 04:14:53;;;;;;;;;;;16.40;99.90;;;;;;4589947;19;19918;-31
2022/06/03 04:16:39;;;;;;;;;;;16.50;99.90;;;;;;4590619;19;19922;-27
2022/06/03 04:18:48;;;;;;;;;;;16.50;99.90;;;;;;4591559;19;19943;-25
2022/06/03 04:20:23;;;;;;;;;;;16.50;99.90;;;;;;4591555;19;20044;-26
2022/06/03 04:21:54;;;;;;;;;;;16.50;99.90;;;;;;4592547;19;19918;-26
2022/06/03 04:23:31;;;;;;;;;;;16.60;99.90;;;;;;4590670;19;19953;-26
2022/06/03 04:25:04;;;;;;;;;;;16.60;99.90;;;;;;4592867;19;19915;-27
2022/06/03 04:26:54;;;;;;;;;;;16.60;99.90;;;;;;4593048;19;19914;-24
2022/06/03 04:28:43;;;;;;;;;;;16.60;99.90;;;;;;4591932;19;19922;-24
2022/06/03 04:30:26;;;;;;;;;;;16.50;99.90;;;;;;4591952;19;20261;-29
2022/06/03 04:31:58;;;;;;;;;;;16.50;99.90;;;;;;4590837;19;19919;-30
2022/06/03 04:33:28;;;;;;;;;;;16.60;99.90;;;;;;4591011;19;20354;-26
2022/06/03 04:35:08;;;;;;;;;;;16.50;99.90;;;;;;4591458;19;19907;-24
2022/06/03 04:37:05;;;;;;;;;;;16.50;99.90;;;;;;4591654;19;19918;-26
2022/06/03 04:38:45;;;;;;;;;;;16.50;99.90;;;;;;4591661;19;19918;-26
2022/06/03 04:40:42;;;;;;;;;;;16.50;99.90;;;;;;4591168;19;19918;-28
2022/06/03 04:42:32;;;;;;;;;;;16.50;99.90;;;;;;4591963;19;19926;-26
2022/06/03 04:44:22;;;;;;;;;;;16.50;99.90;;;;;;4590813;19;19974;-26
2022/06/03 04:45:53;;;;;;;;;;;16.50;99.90;;;;;;4590796;19;19915;-24
2022/06/03 04:47:29;;;;;;;;;;;16.50;99.90;;;;;;4587465;19;19919;-27
2022/06/03 04:49:19;;;;;;;;;;;16.50;99.90;;;;;;4591180;19;19986;-23
2022/06/03 04:51:08;;;;;;;;;;;16.50;99.90;;;;;;4588916;19;19918;-26
2022/06/03 04:52:39;;;;;;;;;;;16.50;99.90;;;;;;4590587;19;19931;-26
2022/06/03 04:54:16;;;;;;;;;;;16.50;99.90;;;;;;4590885;19;20333;-25
2022/06/03 04:55:55;;;;;;;;;;;16.50;99.90;;;;;;4590946;19;19918;-25
2022/06/03 04:57:26;;;;;;;;;;;16.50;99.90;;;;;;4590996;19;19989;-26
2022/06/03 04:59:04;;;;;;;;;;;16.50;99.90;;;;;;4592380;19;19996;-26
2022/06/03 05:00:35;;;;;;;;;;;16.50;99.90;;;;;;4589441;19;19961;-24
2022/06/03 05:02:16;;;;;;;;;;;16.50;99.90;;;;;;4590921;19;19930;-24
2022/06/03 05:03:50;;;;;;;;;;;16.60;99.90;;;;;;4592321;19;19915;-25
2022/06/03 05:05:27;;;;;;;;;;;16.50;99.90;;;;;;4590883;19;20331;-25
2022/06/03 05:07:16;;;;;;;;;;;16.50;99.90;;;;;;4592185;19;20352;-27
2022/06/03 05:08:49;;;;;;;;;;;16.60;99.90;;;;;;4592460;19;19923;-26
2022/06/03 05:10:36;;;;;;;;;;;16.60;99.90;;;;;;4590729;19;20021;-24
2022/06/03 05:12:07;;;;;;;;;;;16.60;99.90;;;;;;4591393;19;19918;-24
2022/06/03 05:13:38;;;;;;;;;;;16.60;99.90;;;;;;4590518;19;19923;-24
2022/06/03 05:15:27;;;;;;;;;;;16.60;99.90;;;;;;4590906;19;19923;-24
2022/06/03 05:17:11;;;;;;;;;;;16.60;99.90;;;;;;4589713;19;19915;-25
2022/06/03 05:18:51;;;;;;;;;;;16.60;99.90;;;;;;4590448;19;19915;-26
2022/06/03 05:20:41;;;;;;;;;;;16.60;99.90;;;;;;4592997;19;19921;-26
2022/06/03 05:22:27;;;;;;;;;;;16.50;99.90;;;;;;4593558;19;20346;-27
2022/06/03 05:24:13;;;;;;;;;;;16.60;99.90;;;;;;4593014;19;19926;-24
2022/06/03 05:25:56;;;;;;;;;;;16.60;99.90;;;;;;4593272;19;19970;-24
2022/06/03 05:27:46;;;;;;;;;;;16.60;99.90;;;;;;4592069;19;19930;-25
2022/06/03 05:29:34;;;;;;;;;;;16.60;99.90;;;;;;4592883;19;19923;-24
2022/06/03 05:31:17;;;;;;;;;;;16.60;99.90;;;;;;4592531;19;19915;-24
2022/06/03 05:33:01;;;;;;;;;;;16.60;99.90;;;;;;4592152;19;20245;-24
2022/06/03 05:34:42;;;;;;;;;;;16.60;99.90;;;;;;4592077;19;19938;-25
2022/06/03 05:36:22;;;;;;;;;;;16.60;99.90;;;;;;4592194;19;19926;-25
2022/06/03 05:37:53;;;;;;;;;;;16.60;99.90;;;;;;4591813;19;19915;-25
2022/06/03 05:39:24;;;;;;;;;;;16.70;99.90;;;;;;4592794;19;19945;-25
2022/06/03 05:41:01;;;;;;;;;;;16.70;99.90;;;;;;4593326;19;19927;-27
2022/06/03 05:42:37;;;;;;;;;;;16.70;99.90;;;;;;4593471;19;19918;-23
2022/06/03 05:44:27;;;;;;;;;;;16.70;99.90;;;;;;4590302;19;20379;-23
2022/06/03 05:45:58;;;;;;;;;;;16.70;99.90;;;;;;4591768;19;19951;-24
2022/06/03 05:47:32;;;;;;;;;;;16.70;99.90;;;;;;4591796;19;19923;-25
2022/06/03 05:49:10;;;;;;;;;;;16.70;99.90;;;;;;4592728;19;19923;-25
2022/06/03 05:50:41;;;;;;;;;;;16.70;99.90;;;;;;4590690;19;19978;-24
2022/06/03 05:52:24;;;;;;;;;;;16.80;99.90;;;;;;4590433;19;19933;-26
2022/06/03 05:53:58;;;;;;;;;;;16.80;99.90;;;;;;4590403;19;19937;-24
2022/06/03 05:55:48;;;;;;;;;;;16.80;99.90;;;;;;4590047;19;19934;-26
2022/06/03 05:57:25;;;;;;;;;;;16.80;99.90;;;;;;4591662;19;19935;-26
2022/06/03 05:58:59;;;;;;;;;;;16.80;99.90;;;;;;4589378;19;19919;-25
2022/06/03 06:00:30;;;;;;;;;;;16.80;99.90;;;;;;4589775;19;19974;-25
2022/06/03 06:02:07;;;;;;;;;;;16.80;99.90;;;;;;4591573;19;19929;-26
2022/06/03 06:03:42;;;;;;;;;;;16.80;99.90;;;;;;4591762;19;19922;-24
2022/06/03 06:05:17;;;;;;;;;;;16.80;99.90;;;;;;4590187;19;19994;-25
2022/06/03 06:07:06;;;;;;;;;;;16.90;99.90;;;;;;4589861;19;19949;-23
2022/06/03 06:08:51;;;;;;;;;;;16.90;99.90;;;;;;4588643;19;19923;-24
2022/06/03 06:10:34;;;;;;;;;;;16.90;99.90;;;;;;4590019;19;19938;-25
2022/06/03 06:12:12;;;;;;;;;;;16.90;99.90;;;;;;4591135;19;19925;-24
2022/06/03 06:13:52;;;;;;;;;;;16.90;99.90;;;;;;4589278;19;19922;-23
2022/06/03 06:15:39;;;;;;;;;;;16.90;99.90;;;;;;4592858;19;19915;-25
2022/06/03 06:17:40;;;;;;;;;;;16.90;99.90;;;;;;4590180;19;19925;-24
2022/06/03 06:19:21;;;;;;;;;;;16.90;99.90;;;;;;4591401;19;19948;-27
2022/06/03 06:21:01;;;;;;;;;;;16.90;99.90;;;;;;4590336;19;20318;-26
2022/06/03 06:22:34;;;;;;;;;;;16.90;99.90;;;;;;4591478;19;19998;-25
2022/06/03 06:24:05;;;;;;;;;;;17.10;99.90;;;;;;4589954;19;19924;-25
2022/06/03 06:25:37;;;;;;;;;;;17.30;99.90;;;;;;4588234;19;19993;-24
2022/06/03 06:27:17;;;;;;;;;;;17.20;99.90;;;;;;4588351;19;19919;-26
2022/06/03 06:29:11;;;;;;;;;;;17.20;99.90;;;;;;4589165;19;19918;-23
2022/06/03 06:30:58;;;;;;;;;;;17.10;99.90;;;;;;4587551;19;19915;-26
2022/06/03 06:32:48;;;;;;;;;;;17.10;99.90;;;;;;4588490;19;20339;-27
2022/06/03 06:34:37;;;;;;;;;;;17.10;99.90;;;;;;4587754;19;19919;-25
2022/06/03 06:36:11;;;;;;;;;;;17.20;99.90;;;;;;4588994;19;19942;-24
2022/06/03 06:37:42;;;;;;;;;;;17.20;99.90;;;;;;4588701;19;19926;-27
2022/06/03 06:39:19;;;;;;;;;;;17.20;99.90;;;;;;4588878;19;19925;-26
2022/06/03 06:40:50;;;;;;;;;;;17.30;99.90;;;;;;4589075;19;20261;-25
2022/06/03 06:42:36;;;;;;;;;;;17.30;99.90;;;;;;4589014;19;19970;-25
2022/06/03 06:44:09;;;;;;;;;;;17.30;99.90;;;;;;4589152;19;19923;-24
2022/06/03 06:45:43;;;;;;;;;;;17.30;99.90;;;;;;4588943;19;19929;-25
2022/06/03 06:47:14;;;;;;;;;;;17.30;99.90;;;;;;4588415;19;19915;-26
2022/06/03 06:49:06;;;;;;;;;;;15.30;99.90;;;;;;4588661;19;19940;-25
2022/06/03 06:50:46;;;;;;;;;;;14.80;99.90;;;;;;4588845;19;19922;-25
2022/06/03 06:52:17;;;;;;;;;;;14.70;99.90;;;;;;4588784;19;19915;-24
2022/06/03 06:53:53;;;;;;;;;;;14.70;99.90;;;;;;4588768;19;19919;-24
2022/06/03 06:55:34;;;;;;;;;;;14.70;99.90;;;;;;4588391;19;19922;-24
2022/06/03 06:57:05;;;;;;;;;;;14.80;99.90;;;;;;4589709;19;20033;-24
2022/06/03 06:58:50;;;;;;;;;;;14.90;99.90;;;;;;4589729;19;19993;-24
2022/06/03 07:00:27;;;;;;;;;;;15.00;99.90;;;;;;4587765;19;19929;-24
2022/06/03 07:02:13;;;;;;;;;;;15.00;99.90;;;;;;4589491;19;19935;-23
2022/06/03 07:03:46;;;;;;;;;;;15.20;99.90;;;;;;4590105;19;20005;-24
2022/06/03 07:05:24;;;;;;;;;;;15.20;99.90;;;;;;4589084;19;19960;-24
2022/06/03 07:07:08;;;;;;;;;;;15.20;99.90;;;;;;4590087;19;19920;-24
2022/06/03 07:08:39;;;;;;;;;;;15.20;99.90;;;;;;4588638;19;19978;-23
2022/06/03 07:10:13;;;;;;;;;;;15.20;99.90;;;;;;4590765;19;19910;-24
2022/06/03 07:11:44;;;;;;;;;;;15.20;99.90;;;;;;4590399;19;20010;-27
2022/06/03 07:13:17;;;;;;;;;;;15.30;99.90;;;;;;4588245;19;20247;-28
2022/06/03 07:14:58;;;;;;;;;;;15.30;99.90;;;;;;4590699;19;19914;-24
2022/06/03 07:20:34;;;;;;;;;;;15.40;99.90;;;;;;4589071;19;19982;-25
2022/06/03 07:22:14;;;;;;;;;;;15.50;99.90;;;;;;4589528;19;19927;-23
2022/06/03 07:24:02;;;;;;;;;;;15.50;99.90;;;;;;4587673;19;20348;-24
2022/06/03 07:25:46;;;;;;;;;;;15.50;99.90;;;;;;4588139;19;20002;-24
2022/06/03 07:27:24;;;;;;;;;;;15.50;99.90;;;;;;4589701;19;19925;-25
2022/06/03 07:29:07;;;;;;;;;;;15.60;99.90;;;;;;4588734;19;19915;-26
2022/06/03 07:30:40;;;;;;;;;;;15.60;99.90;;;;;;4590094;19;19929;-24
2022/06/03 07:32:13;;;;;;;;;;;15.70;99.90;;;;;;4591655;19;19935;-24
2022/06/03 07:34:02;;;;;;;;;;;15.80;99.90;;;;;;4591504;19;19978;-24
2022/06/03 07:35:37;;;;;;;;;;;15.80;99.90;;;;;;4592974;19;19911;-24
2022/06/03 07:37:09;;;;;;;;;;;15.80;99.90;;;;;;4591053;19;20322;-24
2022/06/03 07:38:52;;;;;;;;;;;15.80;99.90;;;;;;4588847;19;20352;-23
2022/06/03 07:40:38;;;;;;;;;;;15.70;99.90;;;;;;4589869;19;19919;-26
2022/06/03 07:42:08;;;;;;;;;;;15.70;99.90;;;;;;4587600;19;20360;-23
2022/06/03 07:43:54;;;;;;;;;;;15.80;99.90;;;;;;4588213;19;19946;-26
2022/06/03 07:45:26;;;;;;;;;;;15.70;99.90;;;;;;4594716;19;20340;-25
2022/06/03 07:47:02;;;;;;;;;;;15.70;99.90;;;;;;4593514;19;19927;-24
2022/06/03 07:48:37;;;;;;;;;;;15.70;99.90;;;;;;4594198;19;19926;-24
2022/06/03 07:50:12;;;;;;;;;;;15.70;99.90;;;;;;4594123;19;19910;-25
2022/06/03 07:51:50;;;;;;;;;;;15.70;99.90;;;;;;4595915;19;19934;-26
2022/06/03 07:53:41;;;;;;;;;;;15.70;99.90;;;;;;4592239;19;19910;-23
2022/06/03 07:55:14;;;;;;;;;;;15.70;99.90;;;;;;4592256;19;19940;-26
2022/06/03 07:56:49;;;;;;;;;;;15.70;99.90;;;;;;4593279;19;20253;-27
2022/06/03 07:58:23;;;;;;;;;;;15.70;99.90;;;;;;4593761;19;19918;-26
2022/06/03 07:59:56;;;;;;;;;;;15.70;99.90;;;;;;4592781;19;19935;-27
2022/06/03 08:01:29;;;;;;;;;;;15.80;99.90;;;;;;4591573;19;19935;-24
2022/06/03 08:03:27;;;;;;;;;;;15.80;99.90;;;;;;4593512;19;19970;-23
2022/06/03 08:05:03;;;;;;;;;;;15.80;99.90;;;;;;4592321;19;19926;-24
2022/06/03 08:12:14;;;;;;;;;;;15.90;99.90;;;;;;4590919;19;20275;-23
2022/06/03 08:13:47;;;;;;;;;;;15.90;99.90;;;;;;4591565;19;19919;-24
2022/06/03 08:15:21;;;;;;;;;;;16.00;99.90;;;;;;4591360;19;19922;-24
2022/06/03 08:16:52;;;;;;;;;;;16.00;99.90;;;;;;4590154;19;19923;-25
2022/06/03 08:18:25;;;;;;;;;;;16.10;99.90;;;;;;4590910;19;19966;-25
2022/06/03 08:20:00;;;;;;;;;;;16.10;99.90;;;;;;4591471;19;19923;-24
2022/06/03 08:21:43;;;;;;;;;;;16.10;99.90;;;;;;4590266;19;20630;-27
2022/06/03 08:23:17;;;;;;;;;;;16.20;99.90;;;;;;4591168;19;19914;-27
2022/06/03 08:24:54;;;;;;;;;;;16.20;99.90;;;;;;4591321;19;19939;-26
2022/06/03 08:26:26;;;;;;;;;;;16.20;99.90;;;;;;4591615;19;19910;-27
2022/06/03 08:27:57;;;;;;;;;;;16.20;99.90;;;;;;4590317;19;20276;-24
2022/06/03 08:29:44;;;;;;;;;;;16.30;99.90;;;;;;4591237;19;19940;-27
2022/06/03 08:31:14;;;;;;;;;;;16.30;99.90;;;;;;4591177;19;20266;-24
2022/06/03 08:32:47;;;;;;;;;;;16.40;99.90;;;;;;4591233;19;19918;-24
2022/06/03 08:34:20;;;;;;;;;;;16.40;99.90;;;;;;4591145;19;20273;-24
2022/06/03 08:35:51;;;;;;;;;;;16.50;99.90;;;;;;4591370;19;19911;-23
2022/06/03 08:37:27;;;;;;;;;;;16.50;99.90;;;;;;4591140;19;19960;-24
2022/06/03 08:39:02;;;;;;;;;;;16.50;99.90;;;;;;4591270;19;19982;-24
2022/06/03 08:40:41;;;;;;;;;;;16.50;99.90;;;;;;4592019;19;19923;-27
2022/06/03 08:42:34;;;;;;;;;;;16.50;99.90;;;;;;4592145;19;20244;-25
2022/06/03 08:44:11;;;;;;;;;;;16.60;99.90;;;;;;4589962;19;20333;-25
2022/06/03 08:45:42;;;;;;;;;;;16.70;99.90;;;;;;4590641;19;19922;-28
2022/06/03 08:47:20;;;;;;;;;;;16.80;99.90;;;;;;4592487;19;19930;-28
2022/06/03 08:48:51;;;;;;;;;;;16.90;99.90;;;;;;4592344;19;19922;-25
2022/06/03 08:50:22;;;;;;;;;;;17.00;99.90;;;;;;4593775;19;19934;-25
2022/06/03 08:52:04;;;;;;;;;;;17.10;99.90;;;;;;4590622;19;19919;-24
2022/06/03 08:53:55;;;;;;;;;;;17.30;99.90;;;;;;4590562;19;19915;-25
2022/06/03 08:55:33;;;;;;;;;;;17.50;99.90;;;;;;4590467;19;19994;-25
2022/06/03 08:57:10;;;;;;;;;;;17.50;99.90;;;;;;4590284;19;19918;-25
2022/06/03 08:58:49;;;;;;;;;;;17.60;99.90;;;;;;4590936;19;19925;-24
2022/06/03 09:00:25;;;;;;;;;;;17.60;99.90;;;;;;4589435;19;19927;-24
2022/06/03 09:01:58;;;;;;;;;;;17.70;99.90;;;;;;4590554;19;19941;-27
2022/06/03 09:03:30;;;;;;;;;;;17.70;99.90;;;;;;4591282;19;20306;-24
2022/06/03 09:05:18;;;;;;;;;;;17.60;99.90;;;;;;4590657;19;19925;-26
2022/06/03 09:06:58;;;;;;;;;;;17.60;99.90;;;;;;4590377;19;19974;-25
2022/06/03 09:08:46;;;;;;;;;;;17.60;99.90;;;;;;4590491;19;19921;-25
2022/06/03 09:10:37;;;;;;;;;;;17.80;99.90;;;;;;4590600;19;19925;-24
2022/06/03 09:12:20;;;;;;;;;;;18.00;99.90;;;;;;4590488;19;19918;-28
2022/06/03 09:13:55;;;;;;;;;;;18.30;99.90;;;;;;4590164;19;19911;-26
2022/06/03 09:15:27;;;;;;;;;;;18.40;99.90;;;;;;4590316;19;20257;-25
2022/06/03 09:17:03;;;;;;;;;;;18.40;99.90;;;;;;4589566;19;19986;-25
2022/06/03 09:18:35;;;;;;;;;;;18.40;99.90;;;;;;4590723;19;19910;-27
2022/06/03 09:20:29;;;;;;;;;;;18.50;99.90;;;;;;4590312;19;19922;-25
2022/06/03 09:22:04;;;;;;;;;;;18.50;99.90;;;;;;4590065;19;20330;-27
2022/06/03 09:23:38;;;;;;;;;;;18.50;99.90;;;;;;4590034;19;20381;-24
2022/06/03 09:25:11;;;;;;;;;;;18.50;99.90;;;;;;4590502;19;19930;-27
2022/06/03 09:26:43;;;;;;;;;;;18.50;99.90;;;;;;4590285;19;19939;-27
2022/06/03 09:28:15;;;;;;;;;;;18.40;99.90;;;;;;4588974;19;19922;-26
2022/06/03 09:29:51;;;;;;;;;;;18.30;99.90;;;;;;4592014;19;19931;-27
2022/06/03 09:31:22;;;;;;;;;;;18.40;99.90;;;;;;4590184;19;20008;-25
2022/06/03 09:32:53;;;;;;;;;;;18.50;99.90;;;;;;4590000;19;19914;-31
2022/06/03 09:34:34;;;;;;;;;;;18.60;99.90;;;;;;4590377;19;19935;-25
2022/06/03 09:36:06;;;;;;;;;;;19.00;99.90;;;;;;4589975;19;19914;-29
2022/06/03 09:37:42;;;;;;;;;;;19.00;99.90;;;;;;4590013;19;19936;-25
2022/06/03 09:39:13;;;;;;;;;;;19.20;99.90;;;;;;4590142;19;19930;-28
2022/06/03 09:40:45;;;;;;;;;;;19.40;99.90;;;;;;4589759;19;19914;-25
2022/06/03 09:42:16;;;;;;;;;;;19.30;99.90;;;;;;4588702;19;19919;-24
2022/06/03 09:43:48;;;;;;;;;;;19.20;99.90;;;;;;4589463;19;19996;-27
2022/06/03 09:45:20;;;;;;;;;;;19.10;99.90;;;;;;4588952;19;20277;-26
2022/06/03 09:47:01;;;;;;;;;;;19.00;99.90;;;;;;4587330;19;20341;-27
2022/06/03 09:48:35;;;;;;;2.60;1.45;;;19.00;99.90;;;;;;4586161;19;20019;-29
2022/06/03 09:50:07;;;;;;;1.65;1.17;;;18.90;99.90;;;;;;4588512;19;20544;-26
2022/06/03 09:52:00;;;;;;;7.57;3.90;;;18.80;99.90;;;;;;4588888;19;20011;-25